Time;durP1;ratioP1;P1;durP2;ratioP2;P2;SDS_P1;SDS_P2;PMS_P1;PMS_P2;Temp;Humidity;BMP_temperature;BMP_pressure;BME280_temperature;BME280_humidity;BME280_pressure;Samples;Min_cycle;Max_cycle;Signal;HPM_P1;HPM_P2
2022/09/18 00:01:15;;;;;;;17.42;15.63;;;;;;;15.73;71.89;97907.08;1790898;80;21398;-41
2022/09/18 00:03:42;;;;;;;15.88;14.33;;;;;;;15.72;72.05;97895.98;1791241;79;21063;-41
2022/09/18 00:06:18;;;;;;;13.70;12.40;;;;;;;15.72;71.99;97886.41;1791142;80;21116;-41
2022/09/18 00:08:45;;;;;;;13.72;12.33;;;;;;;15.76;71.78;97878.12;1791079;80;21012;-41
2022/09/18 00:11:14;;;;;;;13.93;12.50;;;;;;;15.74;71.71;97882.64;1791244;80;21027;-41
2022/09/18 00:13:42;;;;;;;13.58;12.10;;;;;;;15.64;71.74;97868.64;1791516;80;20916;-41
2022/09/18 00:16:11;;;;;;;14.45;12.07;;;;;;;15.66;71.92;97879.92;1791300;79;20959;-41
2022/09/18 00:18:38;;;;;;;11.40;9.95;;;;;;;15.62;72.03;97881.98;1791545;79;21777;-41
2022/09/18 00:21:10;;;;;;;11.18;9.65;;;;;;;15.59;72.04;97890.42;1791200;80;21015;-41
2022/09/18 00:23:37;;;;;;;11.10;9.90;;;;;;;15.65;71.89;97894.78;1791111;80;21026;-41
2022/09/18 00:26:04;;;;;;;11.00;9.90;;;;;;;15.65;71.91;97889.31;1791118;80;20983;-41
2022/09/18 00:28:32;;;;;;;14.13;10.28;;;;;;;15.65;71.91;97885.22;1791110;80;21018;-41
2022/09/18 00:31:10;;;;;;;12.80;10.85;;;;;;;15.61;71.94;97876.34;1791276;80;21880;-41
2022/09/18 00:33:38;;;;;;;10.72;9.63;;;;;;;15.58;72.00;97882.67;1791000;79;20959;-41
2022/09/18 00:36:11;;;;;;;12.15;10.08;;;;;;;15.56;72.16;97886.42;1791198;80;21874;-41
2022/09/18 00:38:38;;;;;;;11.95;10.65;;;;;;;15.60;72.12;97874.80;1791069;79;20963;-41
2022/09/18 00:41:08;;;;;;;11.68;10.43;;;;;;;15.64;72.16;97877.61;1791224;80;21087;-41
2022/09/18 00:43:35;;;;;;;12.07;10.93;;;;;;;15.64;72.18;97883.67;1791269;80;21160;-41
2022/09/18 00:46:22;;;;;;;16.05;12.98;;;;;;;15.61;72.17;97890.00;1791004;80;20998;-41
2022/09/18 00:49:02;;;;;;;14.58;11.03;;;;;;;15.60;72.06;97891.97;1791238;79;21010;-41
2022/09/18 00:51:31;;;;;;;15.60;11.63;;;;;;;15.55;72.10;97893.84;1791031;80;21007;-41
2022/09/18 00:54:31;;;;;;;21.95;15.72;;;;;;;15.60;72.10;97884.36;1791037;79;21051;-41
2022/09/18 00:57:02;;;;;;;18.55;13.90;;;;;;;15.61;72.05;97876.34;1785750;80;21133;-41
2022/09/18 00:59:32;;;;;;;16.48;14.55;;;;;;;15.58;72.17;97879.34;1790924;80;21710;-41
2022/09/18 01:01:59;;;;;;;13.85;11.15;;;;;;;15.59;72.13;97869.16;1791406;79;21530;-41
2022/09/18 01:04:26;;;;;;;12.20;11.00;;;;;;;15.63;72.02;97872.00;1791153;80;21549;-41
2022/09/18 01:07:28;;;;;;;12.40;11.20;;;;;;;15.66;71.86;97859.44;1769733;80;21570;-41
2022/09/18 01:10:06;;;;;;;13.00;11.10;;;;;;;15.66;71.89;97856.70;1791303;80;22053;-41
2022/09/18 01:12:54;;;;;;;13.13;11.88;;;;;;;15.62;71.96;97836.91;1791104;79;21600;-41
2022/09/18 01:15:52;;;;;;;14.87;12.05;;;;;;;15.56;71.93;97821.64;1790482;79;20960;-41
2022/09/18 01:19:00;;;;;;;13.50;10.70;;;;;;;15.48;72.03;97812.66;1791046;79;21039;-41
2022/09/18 01:21:40;;;;;;;11.75;10.65;;;;;;;15.41;72.29;97819.06;1790991;80;21063;-41
2022/09/18 01:24:44;;;;;;;12.82;11.40;;;;;;;15.38;72.42;97814.47;1781390;80;21355;-41
2022/09/18 01:27:16;;;;;;;15.43;12.10;;;;;;;15.39;72.65;97805.68;1790192;79;20979;-41
2022/09/18 01:30:01;;;;;;;13.95;11.25;;;;;;;15.33;72.65;97796.47;1791305;79;20968;-41
2022/09/18 01:32:36;;;;;;;11.43;10.23;;;;;;;15.32;72.76;97799.02;1790910;80;20971;-41
2022/09/18 01:35:22;;;;;;;10.50;9.55;;;;;;;15.31;72.79;97804.30;1797819;79;21521;-41
2022/09/18 01:38:00;;;;;;;10.35;9.33;;;;;;;15.34;72.72;97811.66;1799602;79;21125;-41
2022/09/18 01:40:38;;;;;;;11.57;10.05;;;;;;;15.34;72.85;97818.48;1799306;79;20947;-41
2022/09/18 01:43:08;;;;;;;11.18;10.03;;;;;;;15.34;72.89;97817.89;1774823;79;21451;-41
2022/09/18 01:45:39;;;;;;;10.80;9.80;;;;;;;15.33;72.87;97815.58;1799915;79;21039;-41
2022/09/18 01:48:07;;;;;;;10.65;9.50;;;;;;;15.35;72.83;97816.67;1799548;79;21513;-41
2022/09/18 01:50:40;;;;;;;10.65;9.58;;;;;;;15.37;72.75;97818.98;1799598;79;21111;-41
2022/09/18 01:53:18;;;;;;;11.40;9.68;;;;;;;15.37;72.83;97821.13;1799514;79;21529;-41
2022/09/18 01:55:50;;;;;;;12.10;10.90;;;;;;;15.35;72.92;97815.90;1798530;79;20994;-41
2022/09/18 01:58:18;;;;;;;12.33;10.00;;;;;;;15.36;72.90;97801.83;1799520;79;21553;-41
2022/09/18 02:00:50;;;;;;;9.90;9.00;;;;;;;15.39;72.81;97802.36;1799465;79;21490;-41
2022/09/18 02:03:28;;;;;;;10.05;9.15;;;;;;;15.44;72.76;97794.24;1799445;79;21900;-41
2022/09/18 02:06:01;;;;;;;10.90;9.80;;;;;;;15.45;72.67;97789.69;1799499;79;21008;-40
2022/09/18 02:08:44;;;;;;;10.23;9.13;;;;;;;15.43;72.75;97773.58;1799259;79;21013;-41
2022/09/18 02:11:12;;;;;;;9.43;8.43;;;;;;;15.41;72.71;97769.14;1768438;79;21006;-41
2022/09/18 02:13:56;;;;;;;8.23;7.42;;;;;;;15.35;72.80;97751.73;1799347;79;21524;-41
2022/09/18 02:16:36;;;;;;;8.18;7.35;;;;;;;15.34;72.86;97751.59;1798431;79;21133;-41
2022/09/18 02:19:07;;;;;;;8.33;7.47;;;;;;;15.40;72.78;97745.75;1799552;79;20947;-41
2022/09/18 02:21:35;;;;;;;7.58;6.87;;;;;;;15.40;72.81;97729.36;1799636;79;21477;-41
2022/09/18 02:24:09;;;;;;;8.65;6.95;;;;;;;15.39;72.71;97725.13;1799405;79;21521;-41
2022/09/18 02:26:37;;;;;;;7.70;6.40;;;;;;;15.38;72.60;97714.03;1799567;79;20967;-41
2022/09/18 02:29:04;;;;;;;6.53;5.92;;;;;;;15.40;72.47;97710.25;1799384;79;21070;-41
2022/09/18 02:31:32;;;;;;;6.90;6.20;;;;;;;15.44;72.49;97699.40;1799470;79;21010;-41
2022/09/18 02:33:59;;;;;;;6.78;6.17;;;;;;;15.46;72.41;97689.42;1797045;79;21003;-41
2022/09/18 02:36:57;;;;;;;7.47;6.70;;;;;;;15.44;72.34;97683.02;1790853;79;21533;-41
2022/09/18 02:39:34;;;;;;;7.85;7.05;;;;;;;15.41;72.25;97680.39;1722663;82;21054;-41
2022/09/18 02:42:07;;;;;;;5.90;5.28;;;;;;;15.30;72.36;97665.66;1722880;83;21157;-41
2022/09/18 02:45:00;;;;;;;5.78;5.28;;;;;;;15.25;72.51;97659.98;1754802;80;20975;-41
2022/09/18 02:47:49;;;;;;;5.78;5.28;;;;;;;15.29;72.55;97653.82;1791135;80;20975;-41
2022/09/18 02:50:41;;;;;;;5.92;5.28;;;;;;;15.25;72.67;97646.33;1791237;79;20996;-41
2022/09/18 02:53:16;;;;;;;5.00;4.60;;;;;;;15.19;72.64;97642.77;1791383;80;21019;-41
2022/09/18 02:56:03;;;;;;;4.78;4.28;;;;;;;15.08;72.77;97645.00;1791176;80;21162;-41
2022/09/18 02:58:43;;;;;;;4.40;3.92;;;;;;;15.06;72.88;97651.48;1790808;80;20963;-41
2022/09/18 03:01:10;;;;;;;5.12;4.25;;;;;;;15.09;72.86;97645.77;1769247;80;20960;-41
2022/09/18 03:03:38;;;;;;;4.95;4.45;;;;;;;15.07;72.95;97636.64;1791157;79;21510;-41
2022/09/18 03:06:06;;;;;;;5.30;4.73;;;;;;;15.05;73.05;97629.50;1791447;79;21576;-41
2022/09/18 03:08:34;;;;;;;4.95;3.80;;;;;;;15.01;73.10;97629.39;1790860;80;22775;-41
2022/09/18 03:11:03;;;;;;;3.75;3.37;;;;;;;15.01;73.19;97618.48;1786089;79;20927;-41
2022/09/18 03:13:31;;;;;;;3.92;3.62;;;;;;;15.04;73.14;97612.18;1791124;79;21619;-41
2022/09/18 03:15:58;;;;;;;4.60;3.75;;;;;;;15.05;73.08;97621.31;1791020;79;21048;-41
2022/09/18 03:18:27;;;;;;;4.40;4.00;;;;;;;15.04;73.25;97617.05;1790962;79;21024;-41
2022/09/18 03:20:55;;;;;;;4.92;4.42;;;;;;;15.04;73.28;97609.45;1791321;80;21129;-41
2022/09/18 03:23:22;;;;;;;5.22;3.85;;;;;;;15.04;73.30;97613.55;1790875;80;20952;-41
2022/09/18 03:25:51;;;;;;;4.28;3.60;;;;;;;15.02;73.14;97607.14;1791140;80;21043;-41
2022/09/18 03:28:18;;;;;;;4.37;3.98;;;;;;;15.00;73.12;97595.14;1791059;80;21039;-41
2022/09/18 03:30:45;;;;;;;4.87;4.30;;;;;;;15.04;73.20;97603.39;1791306;79;21106;-41
2022/09/18 03:33:12;;;;;;;5.03;4.53;;;;;;;15.06;73.14;97597.48;1769010;80;23128;-41
2022/09/18 03:35:42;;;;;;;4.28;3.87;;;;;;;15.03;73.17;97591.54;1798268;79;21617;-41
2022/09/18 03:38:09;;;;;;;5.12;3.98;;;;;;;15.02;73.13;97596.23;1799704;78;20955;-41
2022/09/18 03:40:36;;;;;;;5.17;4.67;;;;;;;15.07;73.00;97590.24;1799669;79;21502;-41
2022/09/18 03:43:04;;;;;;;5.58;5.08;;;;;;;15.05;72.84;97576.28;1799969;79;21066;-41
2022/09/18 03:45:31;;;;;;;8.60;4.97;;;;;;;15.00;72.94;97578.17;1799667;79;21223;-41
2022/09/18 03:47:59;;;;;;;6.15;4.80;;;;;;;14.93;73.18;97571.53;1800324;79;21004;-41
2022/09/18 03:50:26;;;;;;;5.22;4.72;;;;;;;14.95;73.24;97565.05;1799684;79;21027;-41
2022/09/18 03:52:54;;;;;;;5.70;4.75;;;;;;;15.00;73.18;97556.94;1799797;79;21019;-41
2022/09/18 03:55:26;;;;;;;6.40;4.80;;;;;;;15.01;73.17;97556.48;1797261;79;21514;-41
2022/09/18 03:57:56;;;;;;;5.80;5.20;;;;;;;14.97;73.19;97539.45;1797184;79;21214;-41
2022/09/18 04:00:41;;;;;;;6.45;4.72;;;;;;;14.91;73.25;97520.70;1799606;79;21061;-41
2022/09/18 04:03:08;;;;;;;6.40;4.85;;;;;;;14.82;73.52;97517.84;1799466;79;20995;-41
2022/09/18 04:05:50;;;;;;;5.92;5.10;;;;;;;14.85;73.55;97518.96;1748196;79;20971;-41
2022/09/18 04:08:36;;;;;;;7.00;5.20;;;;;;;14.86;73.57;97504.89;1799383;79;21082;-41
2022/09/18 04:11:08;;;;;;;6.22;5.40;;;;;;;14.81;73.69;97494.52;1798912;79;21232;-41
2022/09/18 04:13:34;;;;;;;6.80;4.90;;;;;;;14.77;73.71;97496.55;1799255;79;21021;-41
2022/09/18 04:16:03;;;;;;;5.90;4.85;;;;;;;14.75;73.79;97490.78;1799197;79;21589;-41
2022/09/18 04:18:31;;;;;;;7.05;4.50;;;;;;;14.79;73.87;97480.53;1799473;79;21569;-41
2022/09/18 04:20:58;;;;;;;5.80;4.47;;;;;;;14.83;73.70;97471.64;1799566;79;21541;-41
2022/09/18 04:23:25;;;;;;;6.42;4.70;;;;;;;14.81;73.78;97450.87;1799515;79;21969;-41
2022/09/18 04:25:52;;;;;;;5.75;4.55;;;;;;;14.78;73.76;97429.89;1799611;79;20936;-41
2022/09/18 04:28:19;;;;;;;7.40;4.22;;;;;;;14.72;73.78;97420.70;1799368;79;21094;-41
2022/09/18 04:30:47;;;;;;;8.50;4.20;;;;;;;14.65;73.87;97430.47;1799395;79;21686;-41
2022/09/18 04:33:14;;;;;;;6.22;4.50;;;;;;;14.62;74.15;97425.89;1799011;79;21025;-41
2022/09/18 04:35:41;;;;;;;6.97;4.65;;;;;;;14.63;74.39;97430.13;1793650;79;21143;-41
2022/09/18 04:38:08;;;;;;;5.12;4.37;;;;;;;14.62;74.36;97423.16;1790889;80;21017;-41
2022/09/18 04:40:35;;;;;;;4.78;3.87;;;;;;;14.57;74.45;97418.24;1791167;80;21000;-41
2022/09/18 04:43:01;;;;;;;4.58;3.67;;;;;;;14.57;74.56;97414.16;1791027;80;21002;-41
2022/09/18 04:45:29;;;;;;;4.33;3.80;;;;;;;14.61;74.57;97415.58;1791385;80;21046;-41
2022/09/18 04:47:55;;;;;;;4.50;3.87;;;;;;;14.61;74.61;97401.17;1791305;80;21092;-41
2022/09/18 04:50:23;;;;;;;7.08;4.30;;;;;;;14.60;74.59;97390.09;1791064;80;20907;-41
2022/09/18 04:53:04;;;;;;;3.70;3.33;;;;;;;14.56;74.63;97386.11;1791471;79;21045;-41
2022/09/18 04:55:33;;;;;;;6.70;3.55;;;;;;;14.51;74.69;97396.78;1769025;80;21594;-41
2022/09/18 04:58:01;;;;;;;4.53;3.45;;;;;;;14.58;74.87;97392.48;1791042;80;21560;-41
2022/09/18 05:00:30;;;;;;;4.60;3.72;;;;;;;14.63;74.72;97400.13;1791081;80;21125;-41
2022/09/18 05:02:58;;;;;;;3.90;3.50;;;;;;;14.61;74.60;97397.09;1790972;80;20957;-41
2022/09/18 05:05:27;;;;;;;3.83;3.27;;;;;;;14.58;74.59;97395.20;1790926;80;21026;-41
2022/09/18 05:07:54;;;;;;;3.12;2.83;;;;;;;14.56;74.52;97394.30;1791289;80;21556;-41
2022/09/18 05:10:23;;;;;;;3.80;3.50;;;;;;;14.59;74.58;97392.65;1769559;80;20997;-41
2022/09/18 05:12:51;;;;;;;3.33;3.10;;;;;;;14.57;74.46;97390.34;1790990;80;21137;-41
2022/09/18 05:15:18;;;;;;;3.42;3.12;;;;;;;14.50;74.64;97391.16;1790961;80;21025;-41
2022/09/18 05:17:47;;;;;;;3.60;3.00;;;;;;;14.44;74.68;97387.43;1791048;80;21009;-41
2022/09/18 05:20:14;;;;;;;3.45;3.10;;;;;;;14.40;74.86;97389.50;1790930;80;21014;-41
2022/09/18 05:22:48;;;;;;;3.58;3.27;;;;;;;14.42;74.82;97374.84;1791200;80;21080;-41
2022/09/18 05:25:19;;;;;;;4.60;3.05;;;;;;;14.39;74.85;97379.19;1789826;79;21142;-41
2022/09/18 05:27:52;;;;;;;3.75;3.08;;;;;;;14.35;75.00;97377.91;1778037;79;20999;-41
2022/09/18 05:30:21;;;;;;;4.45;2.70;;;;;;;14.32;74.96;97372.55;1767156;80;20983;-41
2022/09/18 05:32:56;;;;;;;3.15;2.92;;;;;;;14.36;75.03;97362.34;1777712;80;20966;-41
2022/09/18 05:35:25;;;;;;;3.25;2.92;;;;;;;14.40;74.93;97363.59;1778053;79;21022;-41
2022/09/18 05:37:52;;;;;;;4.17;3.22;;;;;;;14.36;75.08;97359.62;1778110;80;23104;-41
2022/09/18 05:40:20;;;;;;;3.00;2.80;;;;;;;14.35;75.03;97364.87;1778074;80;21062;-41
2022/09/18 05:42:47;;;;;;;3.45;2.60;;;;;;;14.38;74.97;97357.83;1778167;80;20984;-41
2022/09/18 05:45:15;;;;;;;2.55;2.35;;;;;;;14.43;74.78;97353.95;1778168;80;21546;-41
2022/09/18 05:47:42;;;;;;;4.75;2.62;;;;;;;14.41;74.76;97353.63;1778498;80;20992;-41
2022/09/18 05:50:09;;;;;;;4.45;2.50;;;;;;;14.39;74.88;97356.61;1778258;80;23178;-41
2022/09/18 05:52:36;;;;;;;2.60;2.25;;;;;;;14.35;74.98;97358.82;1778616;79;21828;-41
2022/09/18 05:55:06;;;;;;;2.50;2.20;;;;;;;14.40;74.85;97363.00;1778345;79;20967;-41
2022/09/18 05:57:33;;;;;;;2.58;2.30;;;;;;;14.46;74.76;97361.88;1778800;80;20990;-41
2022/09/18 06:00:01;;;;;;;3.92;2.20;;;;;;;14.49;74.69;97363.72;1778473;79;21074;-41
2022/09/18 06:02:28;;;;;;;3.52;2.55;;;;;;;14.51;74.71;97365.44;1778452;79;21071;-41
2022/09/18 06:04:57;;;;;;;4.45;2.42;;;;;;;14.51;74.79;97364.06;1778038;79;21074;-41
2022/09/18 06:07:24;;;;;;;2.05;1.75;;;;;;;14.57;74.59;97360.98;1778246;80;21019;-41
2022/09/18 06:09:51;;;;;;;2.58;2.37;;;;;;;14.65;74.26;97365.02;1778359;79;21019;-41
2022/09/18 06:12:18;;;;;;;3.65;2.33;;;;;;;14.70;74.20;97365.84;1778292;79;21019;-41
2022/09/18 06:14:45;;;;;;;2.60;2.27;;;;;;;14.75;74.14;97359.84;1778246;79;21230;-41
2022/09/18 06:17:13;;;;;;;2.30;2.10;;;;;;;14.79;73.89;97365.36;1778082;79;21070;-41
2022/09/18 06:19:41;;;;;;;2.58;2.20;;;;;;;14.81;73.87;97359.48;1778259;80;21010;-41
2022/09/18 06:22:08;;;;;;;2.90;2.17;;;;;;;14.87;73.89;97363.17;1778224;80;21035;-41
2022/09/18 06:24:37;;;;;;;2.30;2.10;;;;;;;14.96;73.50;97357.08;1778146;80;21102;-41
2022/09/18 06:27:08;;;;;;;4.55;2.10;;;;;;;14.99;73.50;97355.60;1778217;79;21105;-41
2022/09/18 06:29:35;;;;;;;2.98;2.00;;;;;;;15.01;73.46;97349.09;1778356;79;21035;-41
2022/09/18 06:32:04;;;;;;;1.98;1.87;;;;;;;15.04;73.27;97345.50;1777601;79;21002;-41
2022/09/18 06:34:32;;;;;;;1.80;1.70;;;;;;;15.05;73.28;97343.55;1778087;80;20951;-41
2022/09/18 06:37:00;;;;;;;3.15;1.70;;;;;;;15.08;73.04;97339.33;1783299;79;20999;-41
2022/09/18 06:39:29;;;;;;;2.17;1.77;;;;;;;15.16;72.83;97341.98;1781148;80;21077;-41
2022/09/18 06:42:00;;;;;;;2.12;1.92;;;;;;;15.20;72.67;97348.09;1783572;80;20943;-41
2022/09/18 06:44:47;;;;;;;2.10;1.90;;;;;;;15.22;72.54;97344.34;1780752;80;20920;-41
2022/09/18 06:47:15;;;;;;;2.10;1.90;;;;;;;15.22;72.38;97359.95;1783705;80;20994;-41
2022/09/18 06:49:43;;;;;;;2.10;1.90;;;;;;;15.20;72.33;97372.66;1783675;79;21007;-41
2022/09/18 06:52:10;;;;;;;2.20;1.40;;;;;;;15.19;72.23;97386.17;1784057;80;21103;-41
2022/09/18 06:54:38;;;;;;;1.87;1.60;;;;;;;15.14;72.09;97385.95;1783895;80;21498;-42
2022/09/18 06:57:06;;;;;;;2.17;1.80;;;;;;;15.02;72.61;97383.38;1784166;80;21011;-41
2022/09/18 06:59:33;;;;;;;2.55;1.90;;;;;;;14.91;73.05;97378.83;1784284;79;20990;-41
2022/09/18 07:02:00;;;;;;;2.22;1.60;;;;;;;14.90;73.56;97367.77;1783990;80;21031;-41
2022/09/18 07:04:32;;;;;;;1.98;1.57;;;;;;;14.97;73.76;97367.54;1781537;80;21242;-41
2022/09/18 07:06:58;;;;;;;1.70;1.60;;;;;;;15.05;73.71;97364.01;1783845;79;20994;-41
2022/09/18 07:09:28;;;;;;;2.92;1.60;;;;;;;15.11;73.69;97357.55;1784021;80;21062;-41
2022/09/18 07:11:56;;;;;;;3.02;1.60;;;;;;;15.15;73.63;97347.28;1783893;80;21082;-41
2022/09/18 07:14:25;;;;;;;4.20;1.60;;;;;;;15.19;73.66;97343.86;1783020;80;21045;-41
2022/09/18 07:16:53;;;;;;;2.10;1.90;;;;;;;15.20;73.37;97330.35;1783897;80;21230;-41
2022/09/18 07:19:20;;;;;;;1.40;1.30;;;;;;;15.19;73.39;97314.44;1783748;80;21019;-41
2022/09/18 07:21:47;;;;;;;1.60;1.50;;;;;;;15.23;73.21;97298.10;1783835;79;20955;-41
2022/09/18 07:24:14;;;;;;;1.20;1.10;;;;;;;15.27;73.50;97265.81;1783855;80;21054;-41
2022/09/18 07:26:40;;;;;;;1.30;1.20;;;;;;;15.33;73.49;97272.25;1783981;79;21571;-41
2022/09/18 07:29:08;;;;;;;1.32;1.10;;;;;;;15.36;73.27;97285.77;1783933;79;21230;-41
2022/09/18 07:31:35;;;;;;;1.00;0.90;;;;;;;15.35;73.25;97294.39;1779072;80;21381;-42
2022/09/18 07:34:03;;;;;;;1.05;1.00;;;;;;;15.44;73.20;97278.13;1783705;79;21019;-41
2022/09/18 07:36:31;;;;;;;1.00;1.00;;;;;;;15.54;73.10;97278.39;1783795;79;21018;-41
2022/09/18 07:38:58;;;;;;;1.10;1.00;;;;;;;15.62;72.94;97286.50;1783801;79;21008;-41
2022/09/18 07:41:27;;;;;;;1.00;0.95;;;;;;;15.70;72.77;97284.27;1783753;79;21206;-41
2022/09/18 07:43:54;;;;;;;0.90;0.90;;;;;;;15.72;72.65;97281.27;1784115;80;20985;-41
2022/09/18 07:46:21;;;;;;;3.30;0.90;;;;;;;15.77;72.47;97283.44;1784203;79;21774;-41
2022/09/18 07:48:49;;;;;;;1.35;1.10;;;;;;;15.80;72.02;97277.67;1783922;79;21602;-41
2022/09/18 07:51:17;;;;;;;0.82;0.80;;;;;;;15.82;71.78;97279.37;1783831;80;20995;-41
2022/09/18 07:53:47;;;;;;;0.98;0.90;;;;;;;15.79;71.87;97271.44;1783873;79;21985;-41
2022/09/18 07:56:16;;;;;;;1.15;1.05;;;;;;;15.81;71.94;97270.41;1783843;80;20884;-41
2022/09/18 07:58:43;;;;;;;2.52;0.80;;;;;;;15.82;71.84;97269.80;1783878;80;21023;-41
2022/09/18 08:01:12;;;;;;;0.65;0.65;;;;;;;15.84;71.69;97266.77;1783891;80;20995;-41
2022/09/18 08:03:43;;;;;;;0.85;0.85;;;;;;;15.91;71.46;97265.16;1783089;80;20943;-41
2022/09/18 08:06:12;;;;;;;1.67;0.90;;;;;;;15.95;71.08;97262.30;1778313;79;20908;-42
2022/09/18 08:08:55;;;;;;;1.10;0.72;;;;;;;15.96;70.95;97261.09;1781373;80;20951;-41
2022/09/18 08:11:42;;;;;;;1.62;0.90;;;;;;;15.95;70.96;97260.33;1783904;80;21065;-41
2022/09/18 08:14:27;;;;;;;1.10;0.82;;;;;;;15.94;71.13;97261.53;1783774;80;21034;-41
2022/09/18 08:17:08;;;;;;;0.55;0.55;;;;;;;15.96;71.22;97260.49;1732543;80;21445;-41
2022/09/18 08:19:40;;;;;;;0.80;0.70;;;;;;;16.00;71.11;97257.02;1781861;80;21064;-41
2022/09/18 08:22:17;;;;;;;1.12;0.78;;;;;;;15.99;71.15;97254.73;1780822;80;20951;-42
2022/09/18 08:24:46;;;;;;;0.95;0.85;;;;;;;16.00;71.44;97254.29;1783343;80;20982;-41
2022/09/18 08:27:12;;;;;;;0.88;0.75;;;;;;;16.03;71.54;97247.92;1783954;80;21529;-41
2022/09/18 08:29:41;;;;;;;0.65;0.65;;;;;;;16.11;71.30;97235.38;1783967;79;20991;-41
2022/09/18 08:32:10;;;;;;;0.70;0.70;;;;;;;16.20;71.21;97236.19;1784021;79;21058;-41
2022/09/18 08:34:37;;;;;;;0.60;0.60;;;;;;;16.28;70.76;97238.03;1783970;80;20931;-41
2022/09/18 08:37:04;;;;;;;0.95;0.82;;;;;;;16.33;70.73;97231.98;1784018;79;21550;-41
2022/09/18 08:39:50;;;;;;;1.50;0.78;;;;;;;16.37;70.58;97214.83;1784041;80;21014;-41
2022/09/18 08:42:44;;;;;;;1.32;0.72;;;;;;;16.41;70.76;97219.58;1782816;80;21082;-42
2022/09/18 08:45:28;;;;;;;1.75;1.00;;;;;;;16.46;70.10;97214.86;1783791;79;21318;-41
2022/09/18 08:47:59;;;;;;;0.88;0.70;;;;;;;16.51;69.86;97221.88;1772163;80;21531;-41
2022/09/18 08:50:30;;;;;;;0.75;0.75;;;;;;;16.49;69.70;97218.84;1783844;80;20959;-41
2022/09/18 08:53:02;;;;;;;0.70;0.70;;;;;;;16.47;69.68;97208.19;1784086;79;21002;-42
2022/09/18 08:55:40;;;;;;;1.05;0.70;;;;;;;16.47;69.68;97208.19;1777435;80;21647;-41
2022/09/18 08:58:39;;;;;;;1.10;0.70;;;;;;;16.45;69.51;97195.58;1783730;79;21131;-41
2022/09/18 09:01:10;;;;;;;0.70;0.70;;;;;;;16.49;69.37;97193.47;1783977;80;21018;-42
2022/09/18 09:04:01;;;;;;;0.82;0.70;;;;;;;16.53;69.21;97196.21;1764512;80;20935;-41
2022/09/18 09:07:02;;;;;;;0.80;0.75;;;;;;;16.56;69.03;97178.12;1784141;80;20970;-41
2022/09/18 09:10:02;;;;;;;0.70;0.70;;;;;;;16.56;69.03;97176.75;1783241;80;21514;-41
2022/09/18 09:12:55;;;;;;;0.80;0.80;;;;;;;16.51;69.20;97160.33;1762725;80;21130;-41
2022/09/18 09:15:58;;;;;;;2.45;0.98;;;;;;;16.47;69.31;97150.15;1783624;80;21490;-41
2022/09/18 09:19:00;;;;;;;4.87;3.58;;;;;;;16.49;69.52;97153.80;1754981;80;21207;-41
2022/09/18 09:21:49;;;;;;;2.37;1.87;;;;;;;16.53;69.58;97159.89;1783961;79;21086;-41
2022/09/18 09:24:47;;;;;;;1.80;1.00;;;;;;;16.55;69.80;97158.84;1784206;79;21509;-41
2022/09/18 09:27:42;;;;;;;0.68;0.68;;;;;;;16.58;69.74;97162.06;1705062;83;21264;-41
2022/09/18 09:30:17;;;;;;;0.68;0.65;;;;;;;16.57;69.95;97148.80;1705094;84;21015;-41
2022/09/18 09:33:06;;;;;;;1.10;0.90;;;;;;;16.64;69.62;97152.66;1739340;80;21014;-41
2022/09/18 09:35:53;;;;;;;2.20;0.70;;;;;;;16.74;69.65;97147.36;1783202;80;21903;-41
2022/09/18 09:38:57;;;;;;;0.95;0.75;;;;;;;16.79;69.25;97148.13;1789101;79;21529;-41
2022/09/18 09:41:30;;;;;;;0.98;0.70;;;;;;;16.77;68.89;97133.52;1789949;79;21037;-41
2022/09/18 09:44:37;;;;;;;0.65;0.65;;;;;;;16.75;68.98;97126.36;1789614;80;21021;-41
2022/09/18 09:47:24;;;;;;;4.78;2.60;;;;;;;16.76;69.20;97123.78;1790040;79;21003;-41
2022/09/18 09:50:17;;;;;;;2.45;1.12;;;;;;;16.76;68.76;97126.52;1789625;80;21595;-41
2022/09/18 09:52:45;;;;;;;0.80;0.80;;;;;;;16.79;68.44;97124.87;1789908;79;21062;-41
2022/09/18 09:55:21;;;;;;;1.12;1.02;;;;;;;16.72;68.70;97127.28;1789971;80;21548;-41
2022/09/18 09:58:07;;;;;;;1.12;0.90;;;;;;;16.71;68.97;97128.48;1789899;79;20922;-41
2022/09/18 10:00:42;;;;;;;1.27;0.90;;;;;;;16.69;68.80;97133.67;1789563;80;21018;-41
2022/09/18 10:03:16;;;;;;;2.15;0.90;;;;;;;16.65;68.68;97135.80;1756150;80;21061;-42
2022/09/18 10:05:48;;;;;;;0.70;0.70;;;;;;;16.66;68.58;97135.92;1789679;80;21035;-41
2022/09/18 10:08:44;;;;;;;1.10;0.82;;;;;;;16.63;68.63;97138.81;1785185;79;21845;-41
2022/09/18 10:11:12;;;;;;;1.95;1.27;;;;;;;16.63;68.81;97140.95;1789612;80;21022;-41
2022/09/18 10:14:06;;;;;;;2.08;1.00;;;;;;;16.61;68.76;97148.84;1789902;79;21505;-41
2022/09/18 10:16:39;;;;;;;2.72;1.27;;;;;;;16.57;68.67;97141.95;1787029;79;21014;-41
2022/09/18 10:19:15;;;;;;;1.67;1.10;;;;;;;16.45;69.15;97136.17;1790273;79;21053;-41
2022/09/18 10:21:42;;;;;;;1.55;1.40;;;;;;;16.44;69.42;97136.63;1789800;80;21794;-41
2022/09/18 10:24:47;;;;;;;2.83;1.70;;;;;;;16.48;69.33;97139.97;1789759;79;20915;-41
2022/09/18 10:27:14;;;;;;;1.75;1.62;;;;;;;16.50;69.47;97143.03;1789593;79;21030;-42
2022/09/18 10:29:42;;;;;;;1.42;1.32;;;;;;;16.45;69.76;97149.09;1789591;79;20974;-42
2022/09/18 10:32:11;;;;;;;3.72;1.77;;;;;;;16.44;69.89;97135.25;1789550;80;20999;-41
2022/09/18 10:34:46;;;;;;;2.40;1.80;;;;;;;16.45;70.00;97135.41;1789509;79;21470;-41
2022/09/18 10:37:32;;;;;;;2.95;1.90;;;;;;;16.49;70.20;97126.45;1785159;79;21050;-42
2022/09/18 10:40:04;;;;;;;2.20;2.00;;;;;;;16.57;70.10;97115.38;1778282;79;20990;-41
2022/09/18 10:42:35;;;;;;;3.35;2.20;;;;;;;16.59;70.45;97121.19;1778233;79;20947;-41
2022/09/18 10:45:27;;;;;;;2.42;2.10;;;;;;;16.62;70.54;97122.24;1789641;79;21029;-41
2022/09/18 10:48:16;;;;;;;;;;;;;;;16.66;70.45;97125.59;1791505;79;21257;-41
2022/09/18 10:51:36;;;;;;;2.47;1.57;;;;;;;16.62;70.25;97117.53;1781948;79;22839;-41
2022/09/18 10:54:15;;;;;;;2.12;1.82;;;;;;;16.59;70.43;97118.45;1755057;81;21002;-41
2022/09/18 10:56:46;;;;;;;2.08;1.92;;;;;;;16.67;70.43;97113.44;1752772;81;21513;-41
2022/09/18 10:59:31;;;;;;;3.83;2.15;;;;;;;16.70;70.08;97111.91;1754825;81;21541;-41
2022/09/18 11:02:01;;;;;;;3.20;2.50;;;;;;;16.71;70.13;97109.94;1755127;81;20986;-41
2022/09/18 11:04:28;;;;;;;3.12;2.05;;;;;;;16.70;70.14;97102.34;1754647;81;20986;-41
2022/09/18 11:06:57;;;;;;;2.45;2.12;;;;;;;16.69;70.33;97098.11;1755376;81;21002;-41
2022/09/18 11:09:38;;;;;;;2.12;1.92;;;;;;;16.71;70.43;97090.79;1755263;81;21190;-41
2022/09/18 11:12:20;;;;;;;4.05;2.33;;;;;;;16.76;70.30;97081.98;1753141;81;21037;-41
2022/09/18 11:14:59;;;;;;;2.90;2.40;;;;;;;16.79;70.21;97080.48;1754760;81;21834;-41
2022/09/18 11:17:36;;;;;;;2.80;2.58;;;;;;;16.76;70.43;97063.59;1755106;81;21029;-41
2022/09/18 11:20:04;;;;;;;2.65;2.45;;;;;;;16.78;70.69;97054.93;1725246;81;21058;-41
2022/09/18 11:22:40;;;;;;;3.45;2.65;;;;;;;16.81;70.62;97052.03;1752502;81;21154;-41
2022/09/18 11:25:29;;;;;;;3.17;2.87;;;;;;;16.84;70.46;97033.36;1752278;81;21106;-41
2022/09/18 11:27:58;;;;;;;3.17;2.58;;;;;;;16.89;70.57;97037.45;1753746;81;21085;-41
2022/09/18 11:30:33;;;;;;;3.92;2.90;;;;;;;16.90;70.63;97028.77;1755062;81;21293;-41
2022/09/18 11:33:18;;;;;;;4.28;3.40;;;;;;;16.89;70.53;97025.88;1755148;81;20967;-41
2022/09/18 11:35:49;;;;;;;2.98;2.30;;;;;;;16.84;70.65;97027.88;1755204;81;21058;-41
2022/09/18 11:38:18;;;;;;;3.72;3.35;;;;;;;16.88;70.90;97024.98;1754880;81;21037;-41
2022/09/18 11:40:51;;;;;;;3.33;3.03;;;;;;;16.92;70.53;97017.38;1755113;81;22370;-41
2022/09/18 11:43:28;;;;;;;4.15;3.75;;;;;;;16.94;70.58;97015.69;1754368;81;22003;-41
2022/09/18 11:46:35;;;;;;;4.17;3.77;;;;;;;16.92;70.72;97009.92;1754555;81;21089;-41
2022/09/18 11:49:19;;;;;;;3.75;3.45;;;;;;;16.92;70.87;97004.45;1755003;81;21299;-41
2022/09/18 11:51:58;;;;;;;3.42;3.12;;;;;;;16.85;70.97;97007.48;1742333;81;21856;-41
2022/09/18 11:54:35;;;;;;;3.72;3.40;;;;;;;16.86;70.73;97004.91;1706495;83;21049;-41
2022/09/18 11:57:05;;;;;;;6.12;3.85;;;;;;;16.86;70.81;97015.85;1742075;82;21024;-41
2022/09/18 11:59:40;;;;;;;4.70;4.30;;;;;;;16.84;71.03;97017.55;1737349;82;26797;-41
2022/09/18 12:02:18;;;;;;;5.03;4.12;;;;;;;16.77;71.05;97011.76;1741824;82;21092;-41
2022/09/18 12:05:09;;;;;;;4.50;3.50;;;;;;;16.70;71.44;97005.22;1741512;82;20998;-41